createdAt,value
2019-04-01T00:02:01.366Z,6.50
2019-04-01T00:04:31.973Z,5.60
2019-04-01T00:07:02.415Z,5.22
2019-04-01T00:09:32.833Z,5.67
2019-04-01T00:12:03.277Z,5.60
2019-04-01T00:14:33.711Z,5.15
2019-04-01T00:17:04.181Z,5.42
2019-04-01T00:19:34.662Z,4.90
2019-04-01T00:22:05.167Z,4.85
2019-04-01T00:24:35.881Z,4.63
2019-04-01T00:27:06.465Z,5.17
2019-04-01T00:29:36.880Z,4.75
2019-04-01T00:32:07.801Z,4.37
2019-04-01T00:34:38.680Z,4.47
2019-04-01T00:37:09.080Z,4.55
2019-04-01T00:39:39.563Z,5.17
2019-04-01T00:42:21.266Z,5.53
2019-04-01T00:44:51.770Z,4.80
2019-04-01T00:47:22.856Z,5.30
2019-04-01T00:49:53.296Z,4.75
2019-04-01T00:52:23.745Z,4.92
2019-04-01T00:54:54.269Z,4.37
2019-04-01T00:57:24.908Z,4.75
2019-04-01T00:59:55.338Z,4.30
2019-04-01T01:02:25.941Z,4.33
2019-04-01T01:04:56.778Z,4.30
2019-04-01T01:07:27.325Z,4.50
2019-04-01T01:09:57.750Z,4.60
2019-04-01T01:12:28.153Z,4.08
2019-04-01T01:14:58.823Z,5.15
2019-04-01T01:17:29.312Z,4.60
2019-04-01T01:19:59.937Z,4.78
2019-04-01T01:22:30.366Z,4.30
2019-04-01T01:25:00.882Z,3.90
2019-04-01T01:27:31.274Z,4.75
2019-04-01T01:30:01.630Z,5.05
2019-04-01T01:32:32.071Z,5.05
2019-04-01T01:35:02.815Z,5.37
2019-04-01T01:37:33.341Z,4.70
2019-04-01T01:40:03.893Z,5.92
2019-04-01T01:42:34.512Z,4.70
2019-04-01T01:45:05.464Z,5.60
2019-04-01T01:47:35.958Z,5.10
2019-04-01T01:50:06.920Z,4.45
2019-04-01T01:52:37.629Z,4.85
2019-04-01T01:55:08.325Z,4.30
2019-04-01T01:57:39.544Z,4.28
2019-04-01T02:00:10.770Z,4.90
2019-04-01T02:02:41.262Z,5.12
2019-04-01T02:05:11.615Z,4.90
2019-04-01T02:07:41.994Z,5.08
2019-04-01T02:10:12.621Z,4.53
2019-04-01T02:12:43.120Z,4.47
2019-04-01T02:15:13.862Z,5.10
2019-04-01T02:17:44.322Z,4.65
2019-04-01T02:20:14.746Z,4.50
2019-04-01T02:22:45.346Z,3.70
2019-04-01T02:25:15.891Z,4.75
2019-04-01T02:27:46.294Z,4.50
2019-04-01T02:30:17.018Z,4.55
2019-04-01T02:32:47.577Z,4.65
2019-04-01T02:35:18.019Z,4.95
2019-04-01T02:37:48.407Z,4.90
2019-04-01T02:40:21.996Z,4.78
2019-04-01T02:42:51.030Z,4.78
2019-04-01T02:45:23.820Z,4.42
2019-04-01T02:47:55.342Z,4.80
2019-04-01T02:50:25.803Z,4.15
2019-04-01T02:52:56.205Z,4.40
2019-04-01T02:55:26.736Z,4.60
2019-04-01T02:57:57.261Z,4.12
2019-04-01T03:00:27.740Z,4.30
2019-04-01T03:02:58.130Z,4.08
2019-04-01T03:05:28.663Z,4.60
2019-04-01T03:07:59.041Z,3.90
2019-04-01T03:10:29.688Z,4.60
2019-04-01T03:13:00.227Z,4.67
2019-04-01T03:15:30.682Z,4.12
2019-04-01T03:18:01.609Z,4.42
2019-04-01T03:20:32.114Z,4.17
2019-04-01T03:23:02.449Z,4.85
2019-04-01T03:25:32.849Z,4.25
2019-04-01T03:28:03.230Z,4.22
2019-04-01T03:30:33.974Z,4.03
2019-04-01T03:33:04.472Z,4.20
2019-04-01T03:35:34.999Z,3.87
2019-04-01T03:38:05.463Z,3.98
2019-04-01T03:40:36.160Z,4.60
2019-04-01T03:43:06.920Z,4.85
2019-04-01T03:45:37.357Z,4.35
2019-04-01T03:48:07.861Z,4.90
2019-04-01T03:50:38.386Z,4.85
2019-04-01T03:53:08.936Z,4.10
2019-04-01T03:55:39.341Z,4.58
2019-04-01T03:58:10.182Z,4.25
2019-04-01T04:00:43.273Z,4.00
2019-04-01T04:03:13.644Z,4.50
2019-04-01T04:05:44.672Z,4.35
2019-04-01T04:08:15.155Z,5.72
2019-04-01T04:10:45.957Z,6.28
2019-04-01T04:13:18.082Z,4.78
2019-04-01T04:15:48.557Z,4.95
2019-04-01T04:18:18.885Z,5.80
2019-04-01T04:20:49.290Z,5.30
2019-04-01T04:23:19.897Z,6.03
2019-04-01T04:25:51.269Z,5.10
2019-04-01T04:28:21.711Z,5.65
2019-04-01T04:30:52.369Z,4.78
2019-04-01T04:33:22.710Z,4.65
2019-04-01T04:35:53.108Z,4.85
2019-04-01T04:38:23.570Z,4.87
2019-04-01T04:40:54.035Z,4.70
2019-04-01T04:43:24.507Z,4.12
2019-04-01T04:45:55.060Z,4.08
2019-04-01T04:48:25.496Z,4.65
2019-04-01T04:50:55.996Z,4.70
2019-04-01T04:53:26.931Z,4.00
2019-04-01T04:55:57.386Z,3.95
2019-04-01T04:58:27.807Z,6.08
2019-04-01T05:00:58.318Z,6.10
2019-04-01T05:03:29.036Z,5.58
2019-04-01T05:05:59.468Z,4.97
2019-04-01T05:08:30.004Z,4.42
2019-04-01T05:11:00.750Z,4.53
2019-04-01T05:13:31.229Z,3.75
2019-04-01T05:16:02.076Z,4.15
2019-04-01T05:18:32.466Z,4.47
2019-04-01T05:21:03.573Z,4.08
2019-04-01T05:23:34.335Z,5.03
2019-04-01T05:26:04.928Z,3.87
2019-04-01T05:28:37.070Z,4.25
2019-04-01T05:31:09.522Z,4.17
2019-04-01T05:33:54.894Z,4.35
2019-04-01T05:36:15.912Z,4.30
2019-04-01T05:38:46.679Z,3.85
2019-04-01T05:41:18.050Z,4.08
2019-04-01T05:43:49.620Z,4.53
2019-04-01T05:46:20.165Z,3.75
2019-04-01T05:48:50.785Z,4.20
2019-04-01T05:51:21.206Z,3.60
2019-04-01T05:53:52.175Z,5.92
2019-04-01T05:56:23.485Z,4.75
2019-04-01T05:58:54.290Z,4.20
2019-04-01T06:01:35.760Z,5.12
2019-04-01T06:04:06.342Z,5.15
2019-04-01T06:06:36.959Z,4.50
2019-04-01T06:09:09.273Z,4.75
2019-04-01T06:11:41.528Z,4.97
2019-04-01T06:14:11.943Z,4.55
2019-04-01T06:16:42.887Z,4.17
2019-04-01T06:19:13.185Z,5.85
2019-04-01T06:21:43.627Z,4.45
2019-04-01T06:24:14.140Z,4.20
2019-04-01T06:26:44.584Z,4.20
2019-04-01T06:29:15.687Z,4.30
2019-04-01T06:31:46.078Z,4.00
2019-04-01T06:34:16.388Z,4.12
2019-04-01T06:36:46.911Z,3.75
2019-04-01T06:39:17.314Z,4.12
2019-04-01T06:41:47.948Z,4.00
2019-04-01T06:44:18.528Z,4.20
2019-04-01T06:46:49.039Z,4.12
2019-04-01T06:49:20.484Z,5.47
2019-04-01T06:51:50.995Z,6.03
2019-04-01T06:54:21.357Z,5.92
2019-04-01T06:56:51.946Z,5.45
2019-04-01T06:59:22.594Z,6.50
2019-04-01T07:01:53.155Z,6.43
2019-04-01T07:04:24.136Z,6.62
2019-04-01T07:06:54.874Z,5.17
2019-04-01T07:09:25.358Z,6.23
2019-04-01T07:11:56.016Z,6.37
2019-04-01T07:14:27.061Z,6.00
2019-04-01T07:16:57.730Z,6.33
2019-04-01T07:19:28.194Z,5.92
2019-04-01T07:21:58.785Z,6.87
2019-04-01T07:24:29.509Z,5.83
2019-04-01T07:27:00.087Z,7.70
2019-04-01T07:29:30.859Z,7.30
2019-04-01T07:32:01.835Z,7.37
2019-04-01T07:34:32.494Z,5.93
2019-04-01T07:37:02.892Z,6.40
2019-04-01T07:39:33.479Z,6.17
2019-04-01T07:42:04.533Z,6.07
2019-04-01T07:44:35.441Z,7.40
2019-04-01T07:47:05.863Z,7.50
2019-04-01T07:49:36.155Z,6.83
2019-04-01T07:52:06.691Z,7.30
2019-04-01T07:54:37.112Z,7.67
2019-04-01T07:57:07.880Z,6.93
2019-04-01T07:59:38.480Z,6.33
2019-04-01T08:02:08.907Z,6.30
2019-04-01T08:04:39.367Z,7.03
2019-04-01T08:07:13.107Z,8.50
2019-04-01T08:09:42.365Z,7.73
2019-04-01T08:12:12.862Z,9.03
2019-04-01T08:14:43.362Z,8.80
2019-04-01T08:17:13.782Z,8.73
2019-04-01T08:19:44.272Z,9.37
2019-04-01T08:22:15.194Z,8.37
2019-04-01T08:24:45.719Z,7.70
2019-04-01T08:27:16.150Z,7.70
2019-04-01T08:29:46.963Z,7.47
2019-04-01T08:32:17.285Z,8.80
2019-04-01T08:34:47.693Z,8.03
2019-04-01T08:37:18.109Z,19.77
2019-04-01T08:39:48.694Z,8.40
2019-04-01T08:42:19.544Z,6.77
2019-04-01T08:44:50.033Z,7.40
2019-04-01T08:47:20.410Z,7.50
2019-04-01T08:49:50.913Z,7.40
2019-04-01T08:52:22.023Z,6.90
2019-04-01T08:54:52.808Z,6.60
2019-04-01T08:57:23.213Z,7.00
2019-04-01T08:59:56.753Z,6.90
2019-04-01T09:02:27.256Z,6.47
2019-04-01T09:04:57.876Z,9.40
2019-04-01T09:07:28.311Z,7.40
2019-04-01T09:09:59.251Z,7.83
2019-04-01T09:12:29.789Z,7.73
2019-04-01T09:15:01.625Z,7.27
2019-04-01T09:17:32.163Z,7.00
2019-04-01T09:20:02.890Z,7.20
2019-04-01T09:22:33.315Z,6.70
2019-04-01T09:25:04.186Z,6.67
2019-04-01T09:27:34.612Z,7.50
2019-04-01T09:30:06.310Z,7.43
2019-04-01T09:32:36.710Z,7.80
2019-04-01T09:35:07.630Z,8.80
2019-04-01T09:37:38.300Z,10.03
2019-04-01T09:40:09.062Z,9.70
2019-04-01T09:42:39.735Z,10.93
2019-04-01T09:45:10.774Z,8.83
2019-04-01T09:47:41.282Z,8.17
2019-04-01T09:50:12.027Z,6.73
2019-04-01T09:52:42.640Z,7.27
2019-04-01T09:55:13.271Z,7.10
2019-04-01T09:57:43.847Z,7.60
2019-04-01T10:00:14.589Z,6.90
2019-04-01T10:02:45.222Z,7.00
2019-04-01T10:05:16.235Z,6.30
2019-04-01T10:07:46.839Z,7.20
2019-04-01T10:10:17.376Z,7.23
2019-04-01T10:12:49.767Z,7.37
2019-04-01T10:15:19.950Z,6.80
2019-04-01T10:17:50.309Z,6.50
2019-04-01T10:20:20.981Z,6.10
2019-04-01T10:22:51.612Z,6.40
2019-04-01T10:25:22.065Z,6.70
2019-04-01T10:27:52.668Z,6.97
2019-04-01T10:30:24.845Z,5.73
2019-04-01T10:32:55.462Z,6.10
2019-04-01T10:35:25.931Z,6.50
2019-04-01T10:37:56.422Z,6.30
2019-04-01T10:40:26.789Z,6.20
2019-04-01T10:42:57.308Z,7.27
2019-04-01T10:45:27.854Z,7.90
2019-04-01T10:47:58.470Z,6.30
2019-04-01T10:50:28.906Z,6.20
2019-04-01T10:52:59.744Z,6.13
2019-04-01T10:55:30.353Z,6.67
2019-04-01T10:58:01.062Z,5.90
2019-04-01T11:00:31.487Z,5.67
2019-04-01T11:03:04.291Z,5.70
2019-04-01T11:05:34.118Z,5.33
2019-04-01T11:08:04.776Z,4.83
2019-04-01T11:10:35.702Z,5.23
2019-04-01T11:13:06.441Z,5.17
2019-04-01T11:15:36.914Z,5.63
2019-04-01T11:18:08.282Z,4.90
2019-04-01T11:20:38.618Z,4.73
2019-04-01T11:23:09.176Z,4.23
2019-04-01T11:25:40.776Z,4.97
2019-04-01T11:28:11.209Z,4.60
2019-04-01T11:30:41.726Z,4.80
2019-04-01T11:33:12.568Z,4.60
2019-04-01T11:35:42.971Z,4.30
2019-04-01T11:38:13.396Z,5.00
2019-04-01T11:40:44.362Z,4.50
2019-04-01T11:43:15.004Z,3.93
2019-04-01T11:45:45.623Z,4.67
2019-04-01T11:48:16.204Z,4.63
2019-04-01T11:50:47.889Z,4.60
2019-04-01T11:53:18.591Z,5.07
2019-04-01T11:55:49.194Z,4.27
2019-04-01T11:58:19.700Z,4.93
2019-04-01T12:01:09.731Z,3.67
2019-04-01T12:03:39.994Z,4.10
2019-04-01T12:06:10.353Z,4.87
2019-04-01T12:08:40.839Z,3.77
2019-04-01T12:11:13.836Z,4.47
2019-04-01T12:13:44.270Z,5.13
2019-04-01T12:16:14.953Z,4.70
2019-04-01T12:18:45.409Z,4.47
2019-04-01T12:21:15.835Z,4.50
2019-04-01T12:23:46.339Z,4.70
2019-04-01T12:26:17.693Z,4.13
2019-04-01T12:28:48.514Z,3.90
2019-04-01T12:31:21.776Z,4.40
2019-04-01T12:33:52.406Z,4.57
2019-04-01T12:36:24.110Z,4.33
2019-04-01T12:38:54.675Z,4.57
2019-04-01T12:41:25.164Z,4.33
2019-04-01T12:43:55.520Z,4.57
2019-04-01T12:46:26.001Z,5.17
2019-04-01T12:48:56.343Z,5.10
2019-04-01T12:51:26.841Z,4.57
2019-04-01T12:53:57.280Z,5.23
2019-04-01T12:56:28.270Z,4.90
2019-04-01T12:58:59.826Z,4.53
2019-04-01T13:01:30.299Z,5.30
2019-04-01T13:04:04.002Z,4.90
2019-04-01T13:06:33.243Z,4.57
2019-04-01T13:09:03.930Z,4.87
2019-04-01T13:11:36.222Z,5.23
2019-04-01T13:14:06.984Z,5.10
2019-04-01T13:16:37.406Z,5.77
2019-04-01T13:19:07.759Z,4.20
2019-04-01T13:21:37.944Z,4.70
2019-04-01T13:24:08.391Z,5.70
2019-04-01T13:26:39.091Z,4.53
2019-04-01T13:29:09.547Z,4.33
2019-04-01T13:31:40.189Z,4.63
2019-04-01T13:34:10.610Z,4.60
2019-04-01T13:36:40.997Z,4.60
2019-04-01T13:39:11.553Z,5.27
2019-04-01T13:41:43.022Z,5.10
2019-04-01T13:44:15.403Z,4.97
2019-04-01T13:46:48.535Z,4.17
2019-04-01T13:49:18.398Z,4.57
2019-04-01T13:51:49.102Z,5.43
2019-04-01T13:54:19.667Z,4.80
2019-04-01T13:56:50.076Z,4.80
2019-04-01T13:59:20.510Z,5.20
2019-04-01T14:01:51.141Z,5.47
2019-04-01T14:04:21.868Z,5.10
2019-04-01T14:06:52.686Z,4.90
2019-04-01T14:09:23.018Z,5.00
2019-04-01T14:11:53.561Z,4.53
2019-04-01T14:14:24.328Z,4.80
2019-04-01T14:17:15.080Z,4.60
2019-04-01T14:19:45.867Z,4.80
2019-04-01T14:22:16.535Z,4.13
2019-04-01T14:24:46.958Z,4.13
2019-04-01T14:27:17.453Z,4.37
2019-04-01T14:29:47.749Z,3.77
2019-04-01T14:32:18.610Z,4.57
2019-04-01T14:34:50.476Z,4.20
2019-04-01T14:37:26.137Z,4.10
2019-04-01T14:39:53.331Z,4.57
2019-04-01T14:42:24.201Z,4.40
2019-04-01T14:45:01.562Z,4.30
2019-04-01T14:47:32.672Z,4.70
2019-04-01T14:50:07.373Z,4.53
2019-04-01T14:52:35.472Z,4.87
2019-04-01T14:55:06.663Z,5.20
2019-04-01T14:57:37.131Z,4.73
2019-04-01T15:00:09.487Z,4.90
2019-04-01T15:02:41.144Z,4.60
2019-04-01T15:05:12.027Z,4.27
2019-04-01T15:07:42.592Z,5.27
2019-04-01T15:10:14.322Z,4.27
2019-04-01T15:12:45.687Z,4.80
2019-04-01T15:15:16.222Z,3.47
2019-04-01T15:17:47.263Z,4.57
2019-04-01T15:20:18.320Z,4.47
2019-04-01T15:22:48.931Z,4.40
2019-04-01T15:25:19.472Z,3.80
2019-04-01T15:27:49.957Z,4.20
2019-04-01T15:30:20.534Z,3.30
2019-04-01T15:32:52.048Z,3.60
2019-04-01T15:35:22.690Z,4.13
2019-04-01T15:37:53.544Z,4.13
2019-04-01T15:40:23.849Z,4.40
2019-04-01T15:42:54.528Z,4.57
2019-04-01T15:45:25.128Z,3.57
2019-04-01T15:47:55.534Z,4.10
2019-04-01T15:50:28.759Z,4.10
2019-04-01T15:52:58.070Z,3.60
2019-04-01T15:55:28.425Z,3.63
2019-04-01T15:57:58.859Z,3.97
2019-04-01T16:00:29.339Z,3.57
2019-04-01T16:02:59.921Z,5.00
2019-04-01T16:05:30.647Z,4.00
2019-04-01T16:08:02.536Z,4.10
2019-04-01T16:10:33.285Z,4.00
2019-04-01T16:13:03.763Z,5.20
2019-04-01T16:15:34.255Z,4.00
2019-04-01T16:18:04.790Z,4.80
2019-04-01T16:20:35.200Z,4.27
2019-04-01T16:23:06.025Z,4.70
2019-04-01T16:25:37.730Z,4.40
2019-04-01T16:28:08.334Z,4.50
2019-04-01T16:30:39.256Z,4.37
2019-04-01T16:33:09.678Z,4.53
2019-04-01T16:35:40.085Z,5.00
2019-04-01T16:38:10.460Z,4.47
2019-04-01T16:40:40.925Z,4.83
2019-04-01T16:43:11.418Z,5.40
2019-04-01T16:45:42.928Z,5.60
2019-04-01T16:48:13.364Z,4.73
2019-04-01T16:50:44.263Z,4.97
2019-04-01T16:53:14.720Z,4.80
2019-04-01T16:55:45.191Z,5.43
2019-04-01T16:58:15.680Z,5.40
2019-04-01T17:00:46.777Z,5.40
2019-04-01T17:03:19.121Z,4.87
2019-04-01T17:05:49.511Z,5.73
2019-04-01T17:08:20.006Z,7.70
2019-04-01T17:10:50.414Z,5.63
2019-04-01T17:13:20.918Z,6.97
2019-04-01T17:15:51.327Z,6.77
2019-04-01T17:18:23.482Z,5.20
2019-04-01T17:20:53.907Z,5.67
2019-04-01T17:23:24.279Z,5.40
2019-04-01T17:25:55.116Z,4.70
2019-04-01T17:28:25.581Z,5.17
2019-04-01T17:30:55.966Z,4.83
2019-04-01T17:33:26.769Z,4.93
2019-04-01T17:35:57.241Z,4.50
2019-04-01T17:38:29.465Z,4.73
2019-04-01T17:40:59.916Z,5.03
2019-04-01T17:43:31.695Z,4.50
2019-04-01T17:46:02.704Z,4.20
2019-04-01T17:48:33.621Z,4.90
2019-04-01T17:51:04.123Z,4.87
2019-04-01T17:53:34.532Z,4.20
2019-04-01T17:56:07.268Z,4.40
2019-04-01T17:58:37.768Z,4.53
2019-04-01T18:01:09.427Z,4.43
2019-04-01T18:03:40.539Z,4.90
2019-04-01T18:06:10.966Z,4.73
2019-04-01T18:08:53.247Z,5.03
2019-04-01T18:11:23.859Z,4.53
2019-04-01T18:13:54.462Z,4.47
2019-04-01T18:16:25.087Z,4.23
2019-04-01T18:18:55.693Z,4.43
2019-04-01T18:21:27.268Z,4.80
2019-04-01T18:23:57.938Z,5.10
2019-04-01T18:26:28.376Z,4.70
2019-04-01T18:29:00.892Z,4.97
2019-04-01T18:31:33.443Z,5.27
2019-04-01T18:34:03.529Z,4.27
2019-04-01T18:36:34.946Z,4.60
2019-04-01T18:39:08.119Z,4.93
2019-04-01T18:41:39.002Z,5.50
2019-04-01T18:44:09.996Z,5.00
2019-04-01T18:46:40.634Z,4.63
2019-04-01T18:49:11.099Z,5.03
2019-04-01T18:51:41.589Z,5.30
2019-04-01T18:54:12.421Z,5.00
2019-04-01T18:56:42.873Z,4.58
2019-04-01T18:59:13.371Z,4.80
2019-04-01T19:01:44.194Z,4.58
2019-04-01T19:04:15.059Z,5.50
2019-04-01T19:06:45.574Z,4.80
2019-04-01T19:09:16.151Z,4.83
2019-04-01T19:11:47.696Z,5.40
2019-04-01T19:14:18.012Z,5.10
2019-04-01T19:16:49.397Z,5.03
2019-04-01T19:19:19.802Z,5.13
2019-04-01T19:21:51.269Z,4.97
2019-04-01T19:24:22.441Z,5.27
2019-04-01T19:26:53.428Z,4.90
2019-04-01T19:29:24.254Z,5.12
2019-04-01T19:31:54.852Z,4.90
2019-04-01T19:34:26.993Z,5.40
2019-04-01T19:36:59.323Z,5.03
2019-04-01T19:39:31.799Z,5.75
2019-04-01T19:42:02.653Z,4.72
2019-04-01T19:44:33.118Z,4.47
2019-04-01T19:47:03.927Z,5.00
2019-04-01T19:49:34.329Z,4.80
2019-04-01T19:52:05.766Z,4.40
2019-04-01T19:54:36.991Z,4.62
2019-04-01T19:57:08.338Z,5.25
2019-04-01T19:59:39.024Z,4.67
2019-04-01T20:02:10.185Z,5.37
2019-04-01T20:04:41.935Z,4.47
2019-04-01T20:07:12.962Z,3.80
2019-04-01T20:10:04.803Z,5.12
2019-04-01T20:12:35.640Z,4.42
2019-04-01T20:15:09.443Z,4.63
2019-04-01T20:17:59.279Z,5.35
2019-04-01T20:20:31.242Z,4.33
2019-04-01T20:23:02.258Z,4.50
2019-04-01T20:25:32.997Z,3.47
2019-04-01T20:28:04.258Z,3.75
2019-04-01T20:30:35.187Z,3.90
2019-04-01T20:33:16.882Z,3.87
2019-04-01T20:35:40.263Z,4.00
2019-04-01T20:38:10.807Z,3.87
2019-04-01T20:40:41.609Z,4.12
2019-04-01T20:43:13.162Z,4.80
2019-04-01T20:45:44.210Z,5.85
2019-04-01T20:48:14.866Z,4.95
2019-04-01T20:50:47.286Z,4.60
2019-04-01T20:53:19.168Z,5.50
2019-04-01T20:55:50.911Z,5.55
2019-04-01T20:58:23.391Z,4.72
2019-04-01T21:00:54.692Z,5.47
2019-04-01T21:03:25.632Z,5.35
2019-04-01T21:05:56.374Z,5.10
2019-04-01T21:08:27.350Z,5.25
2019-04-01T21:10:58.408Z,4.60
2019-04-01T21:16:20.988Z,4.97
2019-04-01T21:18:51.878Z,5.53
2019-04-01T21:21:22.530Z,5.65
2019-04-01T21:23:53.549Z,5.30
2019-04-01T21:26:24.401Z,4.73
2019-04-01T21:28:55.673Z,4.83
2019-04-01T21:31:26.822Z,4.77
2019-04-01T21:33:57.447Z,5.80
2019-04-01T21:36:27.935Z,5.30
2019-04-01T21:38:58.339Z,5.00
2019-04-01T21:41:29.039Z,5.35
2019-04-01T21:43:59.781Z,5.90
2019-04-01T21:46:30.301Z,5.00
2019-04-01T21:49:01.859Z,5.47
2019-04-01T21:51:33.013Z,5.50
2019-04-01T21:54:03.414Z,5.50
2019-04-01T21:56:33.825Z,5.90
2019-04-01T21:59:04.277Z,5.62
2019-04-01T22:01:35.009Z,5.87
2019-04-01T22:04:05.691Z,4.90
2019-04-01T22:06:36.364Z,6.45
2019-04-01T22:09:10.034Z,5.90
2019-04-01T22:11:41.348Z,5.60
2019-04-01T22:14:11.761Z,6.30
2019-04-01T22:16:42.217Z,5.70
2019-04-01T22:19:12.665Z,5.50
2019-04-01T22:21:43.043Z,5.25
2019-04-01T22:24:13.560Z,4.85
2019-04-01T22:26:44.001Z,5.22
2019-04-01T22:29:14.443Z,5.25
2019-04-01T22:31:45.356Z,5.42
2019-04-01T22:34:15.803Z,4.80
2019-04-01T22:36:46.914Z,5.58
2019-04-01T22:39:26.648Z,5.37
2019-04-01T22:41:49.613Z,5.72
2019-04-01T22:44:20.042Z,5.55
2019-04-01T22:46:50.683Z,5.90
2019-04-01T22:49:21.297Z,4.93
2019-04-01T22:51:51.673Z,5.72
2019-04-01T22:54:22.113Z,5.53
2019-04-01T22:56:52.786Z,4.90
2019-04-01T22:59:23.248Z,5.62
2019-04-01T23:01:53.720Z,5.40
2019-04-01T23:04:24.496Z,5.45
2019-04-01T23:06:55.124Z,5.78
2019-04-01T23:09:25.592Z,5.30
2019-04-01T23:11:56.479Z,5.53
2019-04-01T23:14:26.934Z,5.65
2019-04-01T23:16:57.375Z,5.47
2019-04-01T23:19:27.772Z,5.65
2019-04-01T23:21:58.111Z,5.00
2019-04-01T23:24:28.704Z,5.72
2019-04-01T23:26:59.246Z,5.95
2019-04-01T23:29:29.910Z,5.25
2019-04-01T23:32:00.409Z,5.62
2019-04-01T23:34:33.983Z,6.20
2019-04-01T23:37:04.429Z,5.50
2019-04-01T23:39:34.955Z,6.15
2019-04-01T23:42:05.583Z,5.20
2019-04-01T23:44:36.101Z,5.50
2019-04-01T23:47:06.641Z,6.42
2019-04-01T23:49:37.269Z,6.15
2019-04-01T23:52:07.787Z,7.30
2019-04-01T23:54:38.166Z,6.30
2019-04-01T23:57:08.691Z,7.35
2019-04-01T23:59:39.252Z,6.60
